createdAt,value
2023-02-26T00:01:02.397Z,3.40
2023-02-26T00:03:30.158Z,4.70
2023-02-26T00:06:01.562Z,4.03
2023-02-26T00:08:31.242Z,4.50
2023-02-26T00:11:00.771Z,4.23
2023-02-26T00:13:31.489Z,3.87
2023-02-26T00:16:01.856Z,3.70
2023-02-26T00:18:30.512Z,4.20
2023-02-26T00:20:57.996Z,4.10
2023-02-26T00:23:25.400Z,3.83
2023-02-26T00:25:52.606Z,3.93
2023-02-26T00:28:20.065Z,4.23
2023-02-26T00:30:47.537Z,4.53
2023-02-26T00:33:16.462Z,3.63
2023-02-26T00:35:44.008Z,4.00
2023-02-26T00:38:14.523Z,3.90
2023-02-26T00:40:45.789Z,3.27
2023-02-26T00:43:15.857Z,3.40
2023-02-26T00:45:52.390Z,3.30
2023-02-26T00:51:29.926Z,3.40
2023-02-26T00:54:05.185Z,3.43
2023-02-26T00:56:32.617Z,3.23
2023-02-26T00:59:00.563Z,3.77
2023-02-26T01:01:29.266Z,3.57
2023-02-26T01:03:57.067Z,3.40
2023-02-26T01:06:26.834Z,5.13
2023-02-26T01:08:58.571Z,3.80
2023-02-26T01:11:25.974Z,3.00
2023-02-26T01:13:53.679Z,3.27
2023-02-26T01:16:29.634Z,3.40
2023-02-26T01:18:59.457Z,3.40
2023-02-26T01:21:33.718Z,3.83
2023-02-26T01:24:03.111Z,3.33
2023-02-26T01:26:30.705Z,3.30
2023-02-26T01:28:58.285Z,2.80
2023-02-26T01:31:44.591Z,3.60
2023-02-26T01:34:30.905Z,3.17
2023-02-26T01:37:05.842Z,2.90
2023-02-26T01:39:54.843Z,2.47
2023-02-26T01:42:27.976Z,3.13
2023-02-26T01:45:03.876Z,2.83
2023-02-26T01:47:53.997Z,3.17
2023-02-26T01:50:25.762Z,3.23
2023-02-26T01:52:53.421Z,3.50
2023-02-26T01:55:22.819Z,3.23
2023-02-26T01:57:52.626Z,2.37
2023-02-26T02:00:21.947Z,3.03
2023-02-26T02:02:50.567Z,3.13
2023-02-26T02:05:22.367Z,2.67
2023-02-26T02:07:50.203Z,3.20
2023-02-26T02:10:17.787Z,2.80
2023-02-26T02:12:51.952Z,2.67
2023-02-26T02:15:29.268Z,2.80
2023-02-26T02:18:02.810Z,3.00
2023-02-26T02:20:30.936Z,3.27
2023-02-26T02:23:21.750Z,3.40
2023-02-26T02:25:52.198Z,3.30
2023-02-26T02:28:38.329Z,2.93
2023-02-26T02:31:12.515Z,2.53
2023-02-26T02:33:58.905Z,2.67
2023-02-26T02:36:35.183Z,2.57
2023-02-26T02:39:09.803Z,2.60
2023-02-26T02:41:40.711Z,2.37
2023-02-26T02:44:14.904Z,2.83
2023-02-26T02:46:45.125Z,2.10
2023-02-26T02:49:16.939Z,2.53
2023-02-26T02:51:57.026Z,2.10
2023-02-26T02:54:43.525Z,1.83
2023-02-26T02:57:34.760Z,2.30
2023-02-26T03:00:06.172Z,1.80
2023-02-26T03:02:37.384Z,2.00
2023-02-26T03:05:05.912Z,1.83
2023-02-26T03:07:35.031Z,2.27
2023-02-26T03:10:02.422Z,2.27
2023-02-26T03:12:32.392Z,2.63
2023-02-26T03:15:02.113Z,2.53
2023-02-26T03:17:29.577Z,2.47
2023-02-26T03:20:17.566Z,2.53
2023-02-26T03:22:44.945Z,2.60
2023-02-26T03:25:21.047Z,2.50
2023-02-26T03:27:53.904Z,2.60
2023-02-26T03:30:23.660Z,2.43
2023-02-26T03:33:02.114Z,2.70
2023-02-26T03:35:39.083Z,2.50
2023-02-26T03:38:09.156Z,2.83
2023-02-26T03:40:40.601Z,2.80
2023-02-26T03:43:13.815Z,2.90
2023-02-26T03:45:43.299Z,3.40
2023-02-26T03:48:14.351Z,3.00
2023-02-26T03:50:44.813Z,3.47
2023-02-26T03:53:26.222Z,3.30
2023-02-26T03:56:08.649Z,3.13
2023-02-26T03:59:10.611Z,3.17
2023-02-26T04:01:50.025Z,4.03
2023-02-26T04:04:21.089Z,2.90
2023-02-26T04:06:48.613Z,3.20
2023-02-26T04:09:16.513Z,3.20
2023-02-26T04:11:44.348Z,3.30
2023-02-26T04:14:12.091Z,3.50
2023-02-26T04:16:42.692Z,3.43
2023-02-26T04:19:09.888Z,3.93
2023-02-26T04:21:37.868Z,3.50
2023-02-26T04:24:06.492Z,4.30
2023-02-26T04:26:35.038Z,3.70
2023-02-26T04:29:02.249Z,4.90
2023-02-26T04:31:29.974Z,3.70
2023-02-26T04:33:57.213Z,3.20
2023-02-26T04:36:24.727Z,4.67
2023-02-26T04:38:52.358Z,4.27
2023-02-26T04:41:19.502Z,4.23
2023-02-26T04:43:49.109Z,3.70
2023-02-26T04:46:36.661Z,3.50
2023-02-26T04:49:04.808Z,4.23
2023-02-26T04:51:32.072Z,3.60
2023-02-26T04:53:59.483Z,4.87
2023-02-26T04:56:27.185Z,4.23
2023-02-26T04:58:55.515Z,4.10
2023-02-26T05:01:27.390Z,4.10
2023-02-26T05:03:55.632Z,3.53
2023-02-26T05:06:22.961Z,4.00
2023-02-26T05:08:50.237Z,3.80
2023-02-26T05:11:18.780Z,3.30
2023-02-26T05:13:48.020Z,3.40
2023-02-26T05:16:15.272Z,3.83
2023-02-26T05:18:42.527Z,3.70
2023-02-26T05:21:09.741Z,3.40
2023-02-26T05:23:38.101Z,3.43
2023-02-26T05:26:05.303Z,4.00
2023-02-26T05:28:33.821Z,3.73
2023-02-26T05:31:01.519Z,4.17
2023-02-26T05:33:28.774Z,3.50
2023-02-26T05:35:57.457Z,3.57
2023-02-26T05:38:24.560Z,4.07
2023-02-26T05:40:51.674Z,3.73
2023-02-26T05:43:19.104Z,3.37
2023-02-26T05:45:46.945Z,3.33
2023-02-26T05:48:14.102Z,3.43
2023-02-26T05:50:41.211Z,3.30
2023-02-26T05:53:08.704Z,3.07
2023-02-26T05:55:36.932Z,3.27
2023-02-26T05:58:04.094Z,4.03
2023-02-26T06:00:31.193Z,3.83
2023-02-26T06:02:59.848Z,3.50
2023-02-26T06:05:27.047Z,3.63
2023-02-26T06:07:54.175Z,3.37
2023-02-26T06:10:21.379Z,3.00
2023-02-26T06:12:48.528Z,3.20
2023-02-26T06:15:15.655Z,3.57
2023-02-26T06:17:43.059Z,2.90
2023-02-26T06:20:10.525Z,3.50
2023-02-26T06:22:37.661Z,3.40
2023-02-26T06:25:06.107Z,3.27
2023-02-26T06:27:33.221Z,3.53
2023-02-26T06:30:00.362Z,3.30
2023-02-26T06:32:30.506Z,3.47
2023-02-26T06:34:57.814Z,3.37
2023-02-26T06:37:25.047Z,3.20
2023-02-26T06:39:52.689Z,3.40
2023-02-26T06:42:20.304Z,3.73
2023-02-26T06:44:47.577Z,3.40
2023-02-26T06:47:14.687Z,3.80
2023-02-26T06:49:41.849Z,3.10
2023-02-26T06:52:08.990Z,3.50
2023-02-26T06:54:36.172Z,3.03
2023-02-26T06:57:03.710Z,2.93
2023-02-26T06:59:30.844Z,3.30
2023-02-26T07:01:58.122Z,3.03
2023-02-26T07:04:25.469Z,2.83
2023-02-26T07:06:52.605Z,3.30
2023-02-26T07:09:20.215Z,3.47
2023-02-26T07:11:47.436Z,3.17
2023-02-26T07:14:14.611Z,3.60
2023-02-26T07:16:42.105Z,3.10
2023-02-26T07:19:09.692Z,3.70
2023-02-26T07:21:37.097Z,3.13
2023-02-26T07:24:04.321Z,3.50
2023-02-26T07:26:31.453Z,3.50
2023-02-26T07:28:58.585Z,3.10
2023-02-26T07:31:25.867Z,3.50
2023-02-26T07:33:53.095Z,3.43
2023-02-26T07:36:20.220Z,3.50
2023-02-26T07:38:47.374Z,3.63
2023-02-26T07:41:14.467Z,4.00
2023-02-26T07:43:42.512Z,3.70
2023-02-26T07:46:09.686Z,3.60
2023-02-26T07:48:37.714Z,3.67
2023-02-26T07:51:07.170Z,4.13
2023-02-26T07:53:36.330Z,3.87
2023-02-26T07:56:04.788Z,3.80
2023-02-26T07:58:31.898Z,3.53
2023-02-26T08:00:59.106Z,3.60
2023-02-26T08:03:26.233Z,3.10
2023-02-26T08:05:53.381Z,3.50
2023-02-26T08:08:20.572Z,3.90
2023-02-26T08:10:47.707Z,3.60
2023-02-26T08:13:14.861Z,3.80
2023-02-26T08:15:43.866Z,3.77
2023-02-26T08:18:11.574Z,3.63
2023-02-26T08:20:38.730Z,2.90
2023-02-26T08:23:05.898Z,4.03
2023-02-26T08:25:33.097Z,3.20
2023-02-26T08:28:01.076Z,3.23
2023-02-26T08:30:28.277Z,3.30
2023-02-26T08:32:55.414Z,3.60
2023-02-26T08:35:22.595Z,3.23
2023-02-26T08:37:49.882Z,4.00
2023-02-26T08:40:17.128Z,3.80
2023-02-26T08:42:44.264Z,3.67
2023-02-26T08:45:11.514Z,4.00
2023-02-26T08:47:53.905Z,3.87
2023-02-26T08:50:22.726Z,3.67
2023-02-26T08:52:49.879Z,3.23
2023-02-26T08:55:17.025Z,3.80
2023-02-26T08:57:44.159Z,3.50
2023-02-26T09:00:11.696Z,3.30
2023-02-26T09:02:39.303Z,3.60
2023-02-26T09:05:06.821Z,4.10
2023-02-26T09:07:33.982Z,3.70
2023-02-26T09:10:01.176Z,3.07
2023-02-26T09:12:28.337Z,3.23
2023-02-26T09:14:57.828Z,3.53
2023-02-26T09:17:25.717Z,2.80
2023-02-26T09:19:52.889Z,3.07
2023-02-26T09:22:20.049Z,3.80
2023-02-26T09:24:47.223Z,3.13
2023-02-26T09:27:14.389Z,3.70
2023-02-26T09:29:41.930Z,3.83
2023-02-26T09:32:09.294Z,3.60
2023-02-26T09:34:37.326Z,3.73
2023-02-26T09:37:06.586Z,3.90
2023-02-26T09:39:33.859Z,3.30
2023-02-26T09:42:07.568Z,3.13
2023-02-26T09:44:36.753Z,3.40
2023-02-26T09:47:16.049Z,3.37
2023-02-26T09:50:05.816Z,3.60
2023-02-26T09:52:36.654Z,3.60
2023-02-26T09:55:11.601Z,3.57
2023-02-26T09:57:42.613Z,3.20
2023-02-26T10:00:30.390Z,3.43
2023-02-26T10:03:06.692Z,3.20
2023-02-26T10:05:43.331Z,3.50
2023-02-26T10:08:15.643Z,3.10
2023-02-26T10:10:49.221Z,3.10
2023-02-26T10:13:23.886Z,3.57
2023-02-26T10:15:51.331Z,3.40
2023-02-26T10:18:31.089Z,3.87
2023-02-26T10:21:09.533Z,3.13
2023-02-26T10:23:43.926Z,3.50
2023-02-26T10:26:22.294Z,3.17
2023-02-26T10:29:08.563Z,2.80
2023-02-26T10:31:50.479Z,2.60
2023-02-26T10:34:26.974Z,2.63
2023-02-26T10:36:55.111Z,2.60
2023-02-26T10:39:29.826Z,5.43
2023-02-26T10:41:59.252Z,2.27
2023-02-26T10:44:50.264Z,2.80
2023-02-26T10:47:23.630Z,2.50
2023-02-26T10:49:55.680Z,3.07
2023-02-26T10:52:27.313Z,2.77
2023-02-26T10:55:13.752Z,2.43
2023-02-26T10:57:43.601Z,2.57
2023-02-26T11:00:17.683Z,3.00
2023-02-26T11:02:46.241Z,2.20
2023-02-26T11:05:22.022Z,2.80
2023-02-26T11:07:53.466Z,2.40
2023-02-26T11:10:29.389Z,2.50
2023-02-26T11:12:56.573Z,2.17
2023-02-26T11:15:26.486Z,2.80
2023-02-26T11:18:00.563Z,2.23
2023-02-26T11:20:34.511Z,2.27
2023-02-26T11:23:03.208Z,2.53
2023-02-26T11:25:33.127Z,2.60
2023-02-26T11:28:03.311Z,2.73
2023-02-26T11:30:32.751Z,3.00
2023-02-26T11:33:04.735Z,2.80
2023-02-26T11:35:32.069Z,2.30
2023-02-26T11:38:03.362Z,1.80
2023-02-26T11:40:33.689Z,2.03
2023-02-26T11:43:04.493Z,2.20
2023-02-26T11:45:31.649Z,3.40
2023-02-26T11:48:04.972Z,2.00
2023-02-26T11:50:34.306Z,2.07
2023-02-26T11:53:10.433Z,2.03
2023-02-26T11:55:39.974Z,3.90
2023-02-26T11:58:19.549Z,2.03
2023-02-26T12:00:47.304Z,2.90
2023-02-26T12:03:20.564Z,3.80
2023-02-26T12:05:47.753Z,1.80
2023-02-26T12:08:18.815Z,2.00
2023-02-26T12:10:54.168Z,2.07
2023-02-26T12:13:46.807Z,2.40
2023-02-26T12:16:32.294Z,2.47
2023-02-26T12:19:07.850Z,2.03
2023-02-26T12:21:46.320Z,1.90
2023-02-26T12:24:21.233Z,2.87
2023-02-26T12:27:18.332Z,1.90
2023-02-26T12:29:54.635Z,1.97
2023-02-26T12:32:30.940Z,1.67
2023-02-26T12:35:21.106Z,2.10
2023-02-26T12:37:52.445Z,1.60
2023-02-26T12:40:40.034Z,1.60
2023-02-26T12:43:11.849Z,1.60
2023-02-26T12:45:43.143Z,1.80
2023-02-26T12:48:11.344Z,2.10
2023-02-26T12:50:47.352Z,2.70
2023-02-26T12:53:20.457Z,1.83
2023-02-26T12:56:06.555Z,1.97
2023-02-26T12:58:44.345Z,2.00
2023-02-26T13:01:20.732Z,2.30
2023-02-26T13:03:48.031Z,2.10
2023-02-26T13:06:21.157Z,2.60
2023-02-26T13:08:54.427Z,2.40
2023-02-26T13:11:40.922Z,2.30
2023-02-26T13:14:17.049Z,2.50
2023-02-26T13:17:04.167Z,2.20
2023-02-26T13:19:31.279Z,2.77
2023-02-26T13:22:04.789Z,2.53
2023-02-26T13:24:31.955Z,1.83
2023-02-26T13:26:59.670Z,2.00
2023-02-26T13:29:30.109Z,2.33
2023-02-26T13:32:13.672Z,1.97
2023-02-26T13:34:43.252Z,1.87
2023-02-26T13:37:26.885Z,2.10
2023-02-26T13:40:08.452Z,1.53
2023-02-26T13:42:51.935Z,3.07
2023-02-26T13:45:24.241Z,2.43
2023-02-26T13:47:56.182Z,2.50
2023-02-26T13:50:46.246Z,2.00
2023-02-26T13:53:31.593Z,1.77
2023-02-26T13:56:13.522Z,1.80
2023-02-26T13:58:42.081Z,2.07
2023-02-26T14:01:17.289Z,2.40
2023-02-26T14:03:54.670Z,1.80
2023-02-26T14:06:43.448Z,2.00
2023-02-26T14:09:23.823Z,2.87
2023-02-26T14:12:01.186Z,2.70
2023-02-26T14:14:55.843Z,2.20
2023-02-26T14:17:38.643Z,2.00
2023-02-26T14:20:17.912Z,2.07
2023-02-26T14:22:48.388Z,2.20
2023-02-26T14:25:32.889Z,1.83
2023-02-26T14:28:20.324Z,2.03
2023-02-26T14:30:48.737Z,2.00
2023-02-26T14:33:18.091Z,2.33
2023-02-26T14:35:50.296Z,2.10
2023-02-26T14:38:22.353Z,1.87
2023-02-26T14:40:52.277Z,2.20
2023-02-26T14:43:21.741Z,2.40
2023-02-26T14:45:50.764Z,3.00
2023-02-26T14:48:20.420Z,2.30
2023-02-26T14:51:03.892Z,2.03
2023-02-26T14:53:40.669Z,2.03
2023-02-26T14:56:12.192Z,1.60
2023-02-26T14:58:40.709Z,2.00
2023-02-26T15:01:26.884Z,2.10
2023-02-26T15:04:08.202Z,2.23
2023-02-26T15:06:42.854Z,1.87
2023-02-26T15:09:16.034Z,1.70
2023-02-26T15:12:04.990Z,2.10
2023-02-26T15:14:51.369Z,1.57
2023-02-26T15:17:18.522Z,2.10
2023-02-26T15:19:45.644Z,1.90
2023-02-26T15:22:20.270Z,1.83
2023-02-26T15:24:47.824Z,1.87
2023-02-26T15:27:17.865Z,1.83
2023-02-26T15:29:45.141Z,2.60
2023-02-26T15:32:26.160Z,1.90
2023-02-26T15:35:01.613Z,2.00
2023-02-26T15:37:33.475Z,2.23
2023-02-26T15:40:04.634Z,2.20
2023-02-26T15:42:33.686Z,1.97
2023-02-26T15:45:02.110Z,2.30
2023-02-26T15:47:30.545Z,2.23
2023-02-26T15:49:58.846Z,2.37
2023-02-26T15:52:26.926Z,2.60
2023-02-26T15:55:05.028Z,2.07
2023-02-26T15:57:32.569Z,1.90
2023-02-26T16:00:10.682Z,2.20
2023-02-26T16:02:41.758Z,2.27
2023-02-26T16:05:11.036Z,1.80
2023-02-26T16:07:38.728Z,1.80
2023-02-26T16:10:08.701Z,1.90
2023-02-26T16:12:43.520Z,2.00
2023-02-26T16:15:32.349Z,2.07
2023-02-26T16:18:00.830Z,2.00
2023-02-26T16:20:29.951Z,2.10
2023-02-26T16:22:57.099Z,1.90
2023-02-26T16:25:30.558Z,2.63
2023-02-26T16:28:06.625Z,2.87
2023-02-26T16:30:35.918Z,2.93
2023-02-26T16:33:05.272Z,2.43
2023-02-26T16:35:35.230Z,2.50
2023-02-26T16:38:12.760Z,2.03
2023-02-26T16:40:42.142Z,3.00
2023-02-26T16:43:25.233Z,2.70
2023-02-26T16:46:02.249Z,2.60
2023-02-26T16:48:31.652Z,2.50
2023-02-26T16:51:06.260Z,2.57
2023-02-26T16:53:37.702Z,2.20
2023-02-26T16:56:05.679Z,2.17
2023-02-26T16:58:35.178Z,2.30
2023-02-26T17:01:09.842Z,2.27
2023-02-26T17:03:39.301Z,2.77
2023-02-26T17:06:09.426Z,2.53
2023-02-26T17:08:56.815Z,2.43
2023-02-26T17:11:33.408Z,2.10
2023-02-26T17:14:24.061Z,2.53
2023-02-26T17:16:51.760Z,2.17
2023-02-26T17:19:19.279Z,2.50
2023-02-26T17:21:51.426Z,2.20
2023-02-26T17:24:23.441Z,2.10
2023-02-26T17:26:51.550Z,2.60
2023-02-26T17:29:20.368Z,2.43
2023-02-26T17:31:47.749Z,2.57
2023-02-26T17:34:15.433Z,2.77
2023-02-26T17:36:42.598Z,2.10
2023-02-26T17:39:12.989Z,2.30
2023-02-26T17:41:42.837Z,2.20
2023-02-26T17:44:10.084Z,2.70
2023-02-26T17:46:37.254Z,2.63
2023-02-26T17:49:04.745Z,2.83
2023-02-26T17:51:32.011Z,3.20
2023-02-26T17:53:59.509Z,3.50
2023-02-26T17:56:31.099Z,3.20
2023-02-26T17:58:58.928Z,3.17
2023-02-26T18:01:29.899Z,2.63
2023-02-26T18:03:57.663Z,2.50
2023-02-26T18:06:25.579Z,2.63
2023-02-26T18:08:54.058Z,3.27
2023-02-26T18:11:23.716Z,2.70
2023-02-26T18:13:51.314Z,3.60
2023-02-26T18:16:23.328Z,3.20
2023-02-26T18:18:51.487Z,2.53
2023-02-26T18:21:20.373Z,2.67
2023-02-26T18:23:47.610Z,2.70
2023-02-26T18:26:19.727Z,2.67
2023-02-26T18:28:46.899Z,2.70
2023-02-26T18:31:14.497Z,3.00
2023-02-26T18:33:44.311Z,3.00
2023-02-26T18:36:16.094Z,3.00
2023-02-26T18:38:43.236Z,2.50
2023-02-26T18:41:10.369Z,2.90
2023-02-26T18:43:37.506Z,2.93
2023-02-26T18:46:04.758Z,3.20
2023-02-26T18:48:32.237Z,2.70
2023-02-26T18:51:00.624Z,1.90
2023-02-26T18:53:27.891Z,2.20
2023-02-26T18:55:56.884Z,2.30
2023-02-26T18:58:24.375Z,2.13
2023-02-26T19:00:51.678Z,3.20
2023-02-26T19:03:19.084Z,2.53
2023-02-26T19:05:46.412Z,2.50
2023-02-26T19:08:13.691Z,2.50
2023-02-26T19:10:40.978Z,2.20
2023-02-26T19:13:08.150Z,3.20
2023-02-26T19:15:35.289Z,2.50
2023-02-26T19:18:05.974Z,3.43
2023-02-26T19:20:33.118Z,2.40
2023-02-26T19:23:01.494Z,2.03
2023-02-26T19:25:30.757Z,2.90
2023-02-26T19:27:58.078Z,2.50
2023-02-26T19:30:26.746Z,2.47
2023-02-26T19:32:55.393Z,2.60
2023-02-26T19:35:22.822Z,2.87
2023-02-26T19:37:49.978Z,3.20
2023-02-26T19:40:17.211Z,2.80
2023-02-26T19:42:45.240Z,3.20
2023-02-26T19:45:14.249Z,3.00
2023-02-26T19:47:41.772Z,2.80
2023-02-26T19:50:09.353Z,2.83
2023-02-26T19:52:37.538Z,3.53
2023-02-26T19:55:09.553Z,2.90
2023-02-26T19:57:36.886Z,2.90
2023-02-26T20:00:05.477Z,3.27
2023-02-26T20:02:39.131Z,3.60
2023-02-26T20:05:07.432Z,3.43
2023-02-26T20:07:34.911Z,2.70
2023-02-26T20:10:02.374Z,2.70
2023-02-26T20:12:32.561Z,2.53
2023-02-26T20:14:59.659Z,4.13
2023-02-26T20:17:26.824Z,2.90
2023-02-26T20:19:53.984Z,2.87
2023-02-26T20:22:22.844Z,2.60
2023-02-26T20:24:50.020Z,2.47
2023-02-26T20:27:17.152Z,3.07
2023-02-26T20:29:44.488Z,2.10
2023-02-26T20:32:11.912Z,2.70
2023-02-26T20:34:39.197Z,3.23
2023-02-26T20:37:06.452Z,2.77
2023-02-26T20:39:33.606Z,2.87
2023-02-26T20:42:00.879Z,3.07
2023-02-26T20:44:28.585Z,3.17
2023-02-26T20:46:55.765Z,3.17
2023-02-26T20:49:23.120Z,3.43
2023-02-26T20:51:50.461Z,2.93
2023-02-26T20:54:20.011Z,3.00
2023-02-26T20:56:48.685Z,2.77
2023-02-26T20:59:18.386Z,3.60
2023-02-26T21:01:46.072Z,3.10
2023-02-26T21:04:13.853Z,3.10
2023-02-26T21:06:41.228Z,3.90
2023-02-26T21:09:10.864Z,3.37
2023-02-26T21:11:39.087Z,3.60
2023-02-26T21:14:07.377Z,3.30
2023-02-26T21:16:34.799Z,3.13
2023-02-26T21:19:04.362Z,3.23
2023-02-26T21:21:32.005Z,3.27
2023-02-26T21:23:59.553Z,3.40
2023-02-26T21:26:27.832Z,3.67
2023-02-26T21:28:55.157Z,2.97
2023-02-26T21:31:22.492Z,3.00
2023-02-26T21:33:49.723Z,2.77
2023-02-26T21:36:16.950Z,2.33
2023-02-26T21:38:44.260Z,3.17
2023-02-26T21:41:11.455Z,2.80
2023-02-26T21:43:39.206Z,3.00
2023-02-26T21:46:06.723Z,3.00
2023-02-26T21:48:35.991Z,3.07
2023-02-26T21:51:03.701Z,3.60
2023-02-26T21:53:31.808Z,3.23
2023-02-26T21:55:59.168Z,2.87
2023-02-26T21:58:26.483Z,3.20
2023-02-26T22:00:53.910Z,3.13
2023-02-26T22:03:21.098Z,2.67
2023-02-26T22:05:50.925Z,2.90
2023-02-26T22:08:18.202Z,3.07
2023-02-26T22:10:45.574Z,2.70
2023-02-26T22:13:12.718Z,3.03
2023-02-26T22:15:39.907Z,3.07
2023-02-26T22:18:07.098Z,3.07
2023-02-26T22:20:34.299Z,2.80
2023-02-26T22:23:02.677Z,3.77
2023-02-26T22:25:30.997Z,2.60
2023-02-26T22:27:58.292Z,2.83
2023-02-26T22:30:25.528Z,2.90
2023-02-26T22:32:52.754Z,3.47
2023-02-26T22:35:19.904Z,2.57
2023-02-26T22:37:47.371Z,2.40
2023-02-26T22:40:14.857Z,3.10
2023-02-26T22:42:42.452Z,2.70
2023-02-26T22:45:11.917Z,2.97
2023-02-26T22:47:39.044Z,2.90
2023-02-26T22:50:06.377Z,2.87
2023-02-26T22:52:33.536Z,2.73
2023-02-26T22:55:00.662Z,2.93
2023-02-26T22:57:28.238Z,2.33
2023-02-26T22:59:55.452Z,2.77
2023-02-26T23:02:22.769Z,2.57
2023-02-26T23:04:50.052Z,2.83
2023-02-26T23:07:17.679Z,2.70
2023-02-26T23:09:45.024Z,3.27
2023-02-26T23:12:12.573Z,3.10
2023-02-26T23:14:40.190Z,2.80
2023-02-26T23:17:09.700Z,2.60
2023-02-26T23:19:38.464Z,3.17
2023-02-26T23:22:06.232Z,2.60
2023-02-26T23:24:33.645Z,2.60
2023-02-26T23:27:01.025Z,3.73
2023-02-26T23:29:28.500Z,3.10
2023-02-26T23:31:56.105Z,2.40
2023-02-26T23:34:24.831Z,2.40
2023-02-26T23:36:52.181Z,2.70
2023-02-26T23:39:20.552Z,2.60
2023-02-26T23:41:47.841Z,2.70
2023-02-26T23:44:16.196Z,3.07
2023-02-26T23:46:44.332Z,2.87
2023-02-26T23:49:11.720Z,2.83
2023-02-26T23:51:39.077Z,3.37
2023-02-26T23:54:06.578Z,2.63
2023-02-26T23:56:34.254Z,3.50
2023-02-26T23:59:01.736Z,2.60
